
<gpx xmlns="http://www.topografix.com/GPX/1/1" xmlns:gpxx="http://www.garmin.com/xmlschemas/GpxExtensions/v3" xmlns:xsi="http://www.w3.org/2001/XMLSchema-instance" version="1.1" creator="Adze - https://getadze.com/" xsi:schemaLocation="http://www.topografix.com/GPX/1/1 http://www.topografix.com/GPX/1/1/gpx.xsd http://www.garmin.com/xmlschemas/GpxExtensions/v3 http://www.garmin.com/xmlschemas/GpxExtensionsv3.xsd">
    <metadata>
        <name>Untitled Document</name>
        <link href="http://www.garmin.com"></link>
        <time>2018-02-27T06:29:49.372Z</time>
    </metadata>
    <wpt lon="99.679435" lat="12.899445">
        <ele>102.000000</ele>
        <name>Kaeng Krachan Resort</name>
        <cmt>27-JAN-12 14:41:54</cmt>
        <desc>27-JAN-12 14:41:54</desc>
        <sym>Lodging</sym>
        <extensions>
            <gpxx:WaypointExtension xmlns:gpxx="http://www.garmin.com/xmlschemas/GpxExtensions/v3">
                <gpxx:DisplayMode>SymbolOnly</gpxx:DisplayMode>
            </gpxx:WaypointExtension>
        </extensions>
    </wpt>
    <wpt lon="99.723291" lat="12.925497">
        <ele>65.000000</ele>
        <name>Water Sun</name>
        <cmt>29-JAN-12 11:17:33</cmt>
        <desc>29-JAN-12 11:17:33</desc>
        <sym>Drinking Water</sym>
        <extensions>
            <gpxx:WaypointExtension xmlns:gpxx="http://www.garmin.com/xmlschemas/GpxExtensions/v3">
                <gpxx:DisplayMode>SymbolOnly</gpxx:DisplayMode>
            </gpxx:WaypointExtension>
        </extensions>
    </wpt>
    <trk>
        <name>Sunday</name>
        <extensions>
            <gpxx:TrackExtension xmlns:gpxx="http://www.garmin.com/xmlschemas/GpxExtensions/v3">
                <gpxx:DisplayColor>Green</gpxx:DisplayColor>
            </gpxx:TrackExtension>
        </extensions>
        <trkseg>
            <trkpt lon="99.680654" lat="12.900047">
                <ele>101.556397</ele>
                <time>2012-01-29T03:01:09Z</time>
            </trkpt>
            <trkpt lon="99.679033" lat="12.899845">
                <ele>102.517700</ele>
                <time>2012-01-29T03:02:09Z</time>
            </trkpt>
            <trkpt lon="99.678007" lat="12.899530">
                <ele>104.921020</ele>
                <time>2012-01-29T03:02:44Z</time>
            </trkpt>
            <trkpt lon="99.677797" lat="12.899642">
                <ele>106.363037</ele>
                <time>2012-01-29T03:02:59Z</time>
            </trkpt>
            <trkpt lon="99.678036" lat="12.900203">
                <ele>112.130981</ele>
                <time>2012-01-29T03:03:38Z</time>
            </trkpt>
            <trkpt lon="99.678044" lat="12.900255">
                <ele>112.611572</ele>
                <time>2012-01-29T03:03:42Z</time>
            </trkpt>
            <trkpt lon="99.678301" lat="12.900875">
                <ele>115.976196</ele>
                <time>2012-01-29T03:04:18Z</time>
            </trkpt>
            <trkpt lon="99.678908" lat="12.901017">
                <ele>115.976196</ele>
                <time>2012-01-29T03:05:32Z</time>
            </trkpt>
            <trkpt lon="99.679367" lat="12.901490">
                <ele>115.014893</ele>
                <time>2012-01-29T03:07:49Z</time>
            </trkpt>
            <trkpt lon="99.680033" lat="12.901491">
                <ele>111.650269</ele>
                <time>2012-01-29T03:08:04Z</time>
            </trkpt>
            <trkpt lon="99.680308" lat="12.901818">
                <ele>107.324341</ele>
                <time>2012-01-29T03:08:14Z</time>
            </trkpt>
            <trkpt lon="99.679866" lat="12.902795">
                <ele>101.556397</ele>
                <time>2012-01-29T03:08:32Z</time>
            </trkpt>
            <trkpt lon="99.679879" lat="12.902948">
                <ele>102.037109</ele>
                <time>2012-01-29T03:08:38Z</time>
            </trkpt>
            <trkpt lon="99.680118" lat="12.903063">
                <ele>102.517700</ele>
                <time>2012-01-29T03:08:46Z</time>
            </trkpt>
            <trkpt lon="99.680261" lat="12.903266">
                <ele>101.556397</ele>
                <time>2012-01-29T03:08:54Z</time>
            </trkpt>
            <trkpt lon="99.680633" lat="12.902794">
                <ele>101.556397</ele>
                <time>2012-01-29T03:09:15Z</time>
            </trkpt>
            <trkpt lon="99.680802" lat="12.902183">
                <ele>102.517700</ele>
                <time>2012-01-29T03:09:37Z</time>
            </trkpt>
            <trkpt lon="99.681066" lat="12.902307">
                <ele>102.517700</ele>
                <time>2012-01-29T03:09:46Z</time>
            </trkpt>
            <trkpt lon="99.681586" lat="12.902806">
                <ele>101.075684</ele>
                <time>2012-01-29T03:10:01Z</time>
            </trkpt>
            <trkpt lon="99.682113" lat="12.903001">
                <ele>99.153076</ele>
                <time>2012-01-29T03:10:12Z</time>
            </trkpt>
            <trkpt lon="99.682271" lat="12.903533">
                <ele>98.191895</ele>
                <time>2012-01-29T03:10:24Z</time>
            </trkpt>
            <trkpt lon="99.682053" lat="12.904016">
                <ele>98.191895</ele>
                <time>2012-01-29T03:10:36Z</time>
            </trkpt>
            <trkpt lon="99.682029" lat="12.904831">
                <ele>98.191895</ele>
                <time>2012-01-29T03:10:52Z</time>
            </trkpt>
            <trkpt lon="99.682467" lat="12.905276">
                <ele>100.595093</ele>
                <time>2012-01-29T03:11:05Z</time>
            </trkpt>
            <trkpt lon="99.682776" lat="12.905365">
                <ele>101.556397</ele>
                <time>2012-01-29T03:11:12Z</time>
            </trkpt>
            <trkpt lon="99.683025" lat="12.905377">
                <ele>101.556397</ele>
                <time>2012-01-29T03:11:19Z</time>
            </trkpt>
            <trkpt lon="99.683298" lat="12.905847">
                <ele>99.633789</ele>
                <time>2012-01-29T03:11:32Z</time>
            </trkpt>
            <trkpt lon="99.683100" lat="12.906326">
                <ele>98.672485</ele>
                <time>2012-01-29T03:11:44Z</time>
            </trkpt>
            <trkpt lon="99.683241" lat="12.906608">
                <ele>98.672485</ele>
                <time>2012-01-29T03:11:53Z</time>
            </trkpt>
            <trkpt lon="99.683470" lat="12.906721">
                <ele>97.711182</ele>
                <time>2012-01-29T03:12:07Z</time>
            </trkpt>
            <trkpt lon="99.683633" lat="12.906652">
                <ele>100.114502</ele>
                <time>2012-01-29T03:12:21Z</time>
            </trkpt>
            <trkpt lon="99.683743" lat="12.906124">
                <ele>99.153076</ele>
                <time>2012-01-29T03:12:35Z</time>
            </trkpt>
            <trkpt lon="99.683140" lat="12.904659">
                <ele>100.114502</ele>
                <time>2012-01-29T03:13:07Z</time>
            </trkpt>
            <trkpt lon="99.683372" lat="12.904553">
                <ele>100.114502</ele>
                <time>2012-01-29T03:13:14Z</time>
            </trkpt>
            <trkpt lon="99.684456" lat="12.904395">
                <ele>98.672485</ele>
                <time>2012-01-29T03:13:33Z</time>
            </trkpt>
            <trkpt lon="99.687002" lat="12.902772">
                <ele>89.059326</ele>
                <time>2012-01-29T03:14:18Z</time>
            </trkpt>
            <trkpt lon="99.688338" lat="12.902737">
                <ele>86.656006</ele>
                <time>2012-01-29T03:14:47Z</time>
            </trkpt>
            <trkpt lon="99.689216" lat="12.903167">
                <ele>89.539917</ele>
                <time>2012-01-29T03:16:14Z</time>
            </trkpt>
            <trkpt lon="99.689248" lat="12.903561">
                <ele>90.020630</ele>
                <time>2012-01-29T03:16:40Z</time>
            </trkpt>
            <trkpt lon="99.689551" lat="12.903871">
                <ele>91.462524</ele>
                <time>2012-01-29T03:16:57Z</time>
            </trkpt>
            <trkpt lon="99.689755" lat="12.904146">
                <ele>91.462524</ele>
                <time>2012-01-29T03:17:08Z</time>
            </trkpt>
            <trkpt lon="99.689419" lat="12.905382">
                <ele>94.346558</ele>
                <time>2012-01-29T03:17:42Z</time>
            </trkpt>
            <trkpt lon="99.689566" lat="12.905477">
                <ele>94.346558</ele>
                <time>2012-01-29T03:17:47Z</time>
            </trkpt>
            <trkpt lon="99.695581" lat="12.906229">
                <ele>86.656006</ele>
                <time>2012-01-29T03:19:49Z</time>
            </trkpt>
            <trkpt lon="99.696421" lat="12.906302">
                <ele>82.810791</ele>
                <time>2012-01-29T03:20:02Z</time>
            </trkpt>
            <trkpt lon="99.696703" lat="12.906120">
                <ele>81.368774</ele>
                <time>2012-01-29T03:20:11Z</time>
            </trkpt>
            <trkpt lon="99.696411" lat="12.906264">
                <ele>81.368774</ele>
                <time>2012-01-29T03:20:12Z</time>
            </trkpt>
            <trkpt lon="99.696597" lat="12.905133">
                <ele>81.849365</ele>
                <time>2012-01-29T03:20:41Z</time>
            </trkpt>
            <trkpt lon="99.696632" lat="12.904470">
                <ele>81.849365</ele>
                <time>2012-01-29T03:20:57Z</time>
            </trkpt>
            <trkpt lon="99.696671" lat="12.903057">
                <ele>78.965454</ele>
                <time>2012-01-29T03:21:25Z</time>
            </trkpt>
            <trkpt lon="99.697349" lat="12.903146">
                <ele>84.733398</ele>
                <time>2012-01-29T03:21:46Z</time>
            </trkpt>
            <trkpt lon="99.698479" lat="12.903384">
                <ele>87.617188</ele>
                <time>2012-01-29T03:22:15Z</time>
            </trkpt>
            <trkpt lon="99.699353" lat="12.903532">
                <ele>83.771973</ele>
                <time>2012-01-29T03:22:33Z</time>
            </trkpt>
            <trkpt lon="99.699562" lat="12.904974">
                <ele>81.849365</ele>
                <time>2012-01-29T03:23:07Z</time>
            </trkpt>
            <trkpt lon="99.699625" lat="12.905754">
                <ele>77.523438</ele>
                <time>2012-01-29T03:23:23Z</time>
            </trkpt>
            <trkpt lon="99.699157" lat="12.905878">
                <ele>77.042847</ele>
                <time>2012-01-29T03:23:38Z</time>
            </trkpt>
            <trkpt lon="99.699181" lat="12.907297">
                <ele>77.523438</ele>
                <time>2012-01-29T03:24:10Z</time>
            </trkpt>
            <trkpt lon="99.699326" lat="12.909131">
                <ele>77.523438</ele>
                <time>2012-01-29T03:24:54Z</time>
            </trkpt>
            <trkpt lon="99.699550" lat="12.910503">
                <ele>75.120239</ele>
                <time>2012-01-29T03:25:34Z</time>
            </trkpt>
            <trkpt lon="99.699898" lat="12.910843">
                <ele>74.639526</ele>
                <time>2012-01-29T03:25:56Z</time>
            </trkpt>
            <trkpt lon="99.699962" lat="12.911279">
                <ele>75.600830</ele>
                <time>2012-01-29T03:26:11Z</time>
            </trkpt>
            <trkpt lon="99.700014" lat="12.911669">
                <ele>75.120239</ele>
                <time>2012-01-29T03:26:24Z</time>
            </trkpt>
            <trkpt lon="99.699966" lat="12.912014">
                <ele>76.081421</ele>
                <time>2012-01-29T03:26:40Z</time>
            </trkpt>
            <trkpt lon="99.698954" lat="12.912318">
                <ele>77.523438</ele>
                <time>2012-01-29T03:27:12Z</time>
            </trkpt>
            <trkpt lon="99.698319" lat="12.913514">
                <ele>81.368774</ele>
                <time>2012-01-29T03:27:53Z</time>
            </trkpt>
            <trkpt lon="99.698311" lat="12.913891">
                <ele>82.810791</ele>
                <time>2012-01-29T03:28:03Z</time>
            </trkpt>
            <trkpt lon="99.698278" lat="12.916752">
                <ele>86.175293</ele>
                <time>2012-01-29T03:29:13Z</time>
            </trkpt>
            <trkpt lon="99.698111" lat="12.917234">
                <ele>84.733398</ele>
                <time>2012-01-29T03:29:29Z</time>
            </trkpt>
            <trkpt lon="99.698846" lat="12.917634">
                <ele>83.291382</ele>
                <time>2012-01-29T03:29:47Z</time>
            </trkpt>
            <trkpt lon="99.698857" lat="12.917769">
                <ele>82.810791</ele>
                <time>2012-01-29T03:29:52Z</time>
            </trkpt>
            <trkpt lon="99.698277" lat="12.919399">
                <ele>83.771973</ele>
                <time>2012-01-29T03:30:35Z</time>
            </trkpt>
            <trkpt lon="99.697910" lat="12.920272">
                <ele>83.291382</ele>
                <time>2012-01-29T03:30:52Z</time>
            </trkpt>
            <trkpt lon="99.697362" lat="12.921538">
                <ele>78.965454</ele>
                <time>2012-01-29T03:31:37Z</time>
            </trkpt>
            <trkpt lon="99.695462" lat="12.921141">
                <ele>79.926636</ele>
                <time>2012-01-29T03:32:33Z</time>
            </trkpt>
            <trkpt lon="99.694320" lat="12.921140">
                <ele>81.368774</ele>
                <time>2012-01-29T03:33:04Z</time>
            </trkpt>
            <trkpt lon="99.693301" lat="12.921384">
                <ele>82.810791</ele>
                <time>2012-01-29T03:33:47Z</time>
            </trkpt>
            <trkpt lon="99.693059" lat="12.921756">
                <ele>85.694580</ele>
                <time>2012-01-29T03:34:07Z</time>
            </trkpt>
            <trkpt lon="99.692868" lat="12.922179">
                <ele>85.694580</ele>
                <time>2012-01-29T03:34:26Z</time>
            </trkpt>
            <trkpt lon="99.693057" lat="12.922913">
                <ele>87.136597</ele>
                <time>2012-01-29T03:34:58Z</time>
            </trkpt>
            <trkpt lon="99.693406" lat="12.923196">
                <ele>88.578735</ele>
                <time>2012-01-29T03:35:11Z</time>
            </trkpt>
            <trkpt lon="99.693453" lat="12.923423">
                <ele>88.098022</ele>
                <time>2012-01-29T03:35:17Z</time>
            </trkpt>
            <trkpt lon="99.694288" lat="12.923654">
                <ele>83.771973</ele>
                <time>2012-01-29T03:35:37Z</time>
            </trkpt>
            <trkpt lon="99.694707" lat="12.923618">
                <ele>82.330078</ele>
                <time>2012-01-29T03:35:46Z</time>
            </trkpt>
            <trkpt lon="99.695639" lat="12.924372">
                <ele>78.965454</ele>
                <time>2012-01-29T03:36:11Z</time>
            </trkpt>
            <trkpt lon="99.696027" lat="12.924468">
                <ele>79.446045</ele>
                <time>2012-01-29T03:36:20Z</time>
            </trkpt>
            <trkpt lon="99.697826" lat="12.925483">
                <ele>79.926636</ele>
                <time>2012-01-29T03:37:08Z</time>
            </trkpt>
            <trkpt lon="99.698730" lat="12.925919">
                <ele>78.965454</ele>
                <time>2012-01-29T03:37:30Z</time>
            </trkpt>
            <trkpt lon="99.702313" lat="12.927962">
                <ele>90.501343</ele>
                <time>2012-01-29T03:38:50Z</time>
            </trkpt>
            <trkpt lon="99.704407" lat="12.929145">
                <ele>78.484741</ele>
                <time>2012-01-29T03:39:42Z</time>
            </trkpt>
            <trkpt lon="99.704397" lat="12.929285">
                <ele>78.965454</ele>
                <time>2012-01-29T03:39:47Z</time>
            </trkpt>
            <trkpt lon="99.704282" lat="12.929435">
                <ele>78.484741</ele>
                <time>2012-01-29T03:39:54Z</time>
            </trkpt>
            <trkpt lon="99.704357" lat="12.929642">
                <ele>78.004028</ele>
                <time>2012-01-29T03:40:01Z</time>
            </trkpt>
            <trkpt lon="99.705170" lat="12.930000">
                <ele>76.562134</ele>
                <time>2012-01-29T03:40:26Z</time>
            </trkpt>
            <trkpt lon="99.705424" lat="12.929858">
                <ele>77.523438</ele>
                <time>2012-01-29T03:40:34Z</time>
            </trkpt>
            <trkpt lon="99.705795" lat="12.929987">
                <ele>80.407471</ele>
                <time>2012-01-29T03:40:46Z</time>
            </trkpt>
            <trkpt lon="99.706241" lat="12.930164">
                <ele>81.849365</ele>
                <time>2012-01-29T03:41:02Z</time>
            </trkpt>
            <trkpt lon="99.706964" lat="12.930457">
                <ele>80.888184</ele>
                <time>2012-01-29T03:41:32Z</time>
            </trkpt>
            <trkpt lon="99.709032" lat="12.930668">
                <ele>76.081421</ele>
                <time>2012-01-29T03:42:21Z</time>
            </trkpt>
            <trkpt lon="99.708888" lat="12.932421">
                <ele>74.158813</ele>
                <time>2012-01-29T03:43:22Z</time>
            </trkpt>
            <trkpt lon="99.708770" lat="12.932707">
                <ele>76.562134</ele>
                <time>2012-01-29T03:43:38Z</time>
            </trkpt>
            <trkpt lon="99.708355" lat="12.932782">
                <ele>76.562134</ele>
                <time>2012-01-29T03:43:58Z</time>
            </trkpt>
            <trkpt lon="99.708139" lat="12.932981">
                <ele>77.042847</ele>
                <time>2012-01-29T03:44:13Z</time>
            </trkpt>
            <trkpt lon="99.708315" lat="12.933244">
                <ele>76.081421</ele>
                <time>2012-01-29T03:44:26Z</time>
            </trkpt>
            <trkpt lon="99.708639" lat="12.933239">
                <ele>77.523438</ele>
                <time>2012-01-29T03:44:38Z</time>
            </trkpt>
            <trkpt lon="99.708722" lat="12.933669">
                <ele>82.810791</ele>
                <time>2012-01-29T03:45:05Z</time>
            </trkpt>
            <trkpt lon="99.708839" lat="12.934326">
                <ele>82.330078</ele>
                <time>2012-01-29T03:45:33Z</time>
            </trkpt>
            <trkpt lon="99.708354" lat="12.934749">
                <ele>86.656006</ele>
                <time>2012-01-29T03:46:08Z</time>
            </trkpt>
            <trkpt lon="99.708322" lat="12.935633">
                <ele>89.059326</ele>
                <time>2012-01-29T03:46:52Z</time>
            </trkpt>
            <trkpt lon="99.708534" lat="12.935816">
                <ele>89.059326</ele>
                <time>2012-01-29T03:47:02Z</time>
            </trkpt>
            <trkpt lon="99.709071" lat="12.935883">
                <ele>88.098022</ele>
                <time>2012-01-29T03:47:15Z</time>
            </trkpt>
            <trkpt lon="99.709254" lat="12.936073">
                <ele>86.656006</ele>
                <time>2012-01-29T03:47:21Z</time>
            </trkpt>
            <trkpt lon="99.709882" lat="12.937380">
                <ele>81.849365</ele>
                <time>2012-01-29T03:47:54Z</time>
            </trkpt>
            <trkpt lon="99.710486" lat="12.937629">
                <ele>78.004028</ele>
                <time>2012-01-29T03:49:48Z</time>
            </trkpt>
            <trkpt lon="99.710490" lat="12.937623">
                <ele>74.158813</ele>
                <time>2012-01-29T03:50:33Z</time>
            </trkpt>
            <trkpt lon="99.710492" lat="12.937638">
                <ele>79.926636</ele>
                <time>2012-01-29T03:53:17Z</time>
            </trkpt>
            <trkpt lon="99.710572" lat="12.937783">
                <ele>78.484741</ele>
                <time>2012-01-29T03:53:38Z</time>
            </trkpt>
            <trkpt lon="99.710970" lat="12.939214">
                <ele>74.639526</ele>
                <time>2012-01-29T03:54:31Z</time>
            </trkpt>
            <trkpt lon="99.711294" lat="12.940029">
                <ele>74.639526</ele>
                <time>2012-01-29T03:55:13Z</time>
            </trkpt>
            <trkpt lon="99.712273" lat="12.939691">
                <ele>73.678223</ele>
                <time>2012-01-29T03:58:30Z</time>
            </trkpt>
            <trkpt lon="99.714638" lat="12.938371">
                <ele>63.103638</ele>
                <time>2012-01-29T03:59:12Z</time>
            </trkpt>
            <trkpt lon="99.717269" lat="12.937521">
                <ele>59.258423</ele>
                <time>2012-01-29T03:59:54Z</time>
            </trkpt>
            <trkpt lon="99.717538" lat="12.937262">
                <ele>57.816528</ele>
                <time>2012-01-29T04:00:01Z</time>
            </trkpt>
            <trkpt lon="99.717792" lat="12.938259">
                <ele>57.816528</ele>
                <time>2012-01-29T04:00:24Z</time>
            </trkpt>
            <trkpt lon="99.717889" lat="12.938736">
                <ele>56.374512</ele>
                <time>2012-01-29T04:00:34Z</time>
            </trkpt>
            <trkpt lon="99.718213" lat="12.939322">
                <ele>59.739136</ele>
                <time>2012-01-29T04:00:47Z</time>
            </trkpt>
            <trkpt lon="99.718242" lat="12.940236">
                <ele>57.816528</ele>
                <time>2012-01-29T04:01:06Z</time>
            </trkpt>
            <trkpt lon="99.718380" lat="12.940363">
                <ele>55.893799</ele>
                <time>2012-01-29T04:01:11Z</time>
            </trkpt>
            <trkpt lon="99.720330" lat="12.940484">
                <ele>58.297119</ele>
                <time>2012-01-29T04:01:57Z</time>
            </trkpt>
            <trkpt lon="99.721415" lat="12.941309">
                <ele>62.622925</ele>
                <time>2012-01-29T04:02:45Z</time>
            </trkpt>
            <trkpt lon="99.728910" lat="12.941178">
                <ele>70.794190</ele>
                <time>2012-01-29T04:05:56Z</time>
            </trkpt>
            <trkpt lon="99.730648" lat="12.941177">
                <ele>68.871582</ele>
                <time>2012-01-29T04:06:37Z</time>
            </trkpt>
            <trkpt lon="99.730749" lat="12.937359">
                <ele>57.816528</ele>
                <time>2012-01-29T04:08:10Z</time>
            </trkpt>
            <trkpt lon="99.731312" lat="12.937375">
                <ele>59.739136</ele>
                <time>2012-01-29T04:08:26Z</time>
            </trkpt>
            <trkpt lon="99.732226" lat="12.937348">
                <ele>58.297119</ele>
                <time>2012-01-29T04:09:15Z</time>
            </trkpt>
            <trkpt lon="99.732936" lat="12.937288">
                <ele>52.529175</ele>
                <time>2012-01-29T04:09:45Z</time>
            </trkpt>
            <trkpt lon="99.733356" lat="12.935011">
                <ele>53.971191</ele>
                <time>2012-01-29T04:10:53Z</time>
            </trkpt>
            <trkpt lon="99.733782" lat="12.932747">
                <ele>46.280640</ele>
                <time>2012-01-29T04:11:40Z</time>
            </trkpt>
            <trkpt lon="99.732691" lat="12.927783">
                <ele>47.241821</ele>
                <time>2012-01-29T04:13:20Z</time>
            </trkpt>
            <trkpt lon="99.732753" lat="12.927408">
                <ele>47.241821</ele>
                <time>2012-01-29T04:13:35Z</time>
            </trkpt>
            <trkpt lon="99.730514" lat="12.926429">
                <ele>46.761231</ele>
                <time>2012-01-29T04:14:32Z</time>
            </trkpt>
            <trkpt lon="99.729372" lat="12.926078">
                <ele>47.722534</ele>
                <time>2012-01-29T04:14:56Z</time>
            </trkpt>
            <trkpt lon="99.728168" lat="12.925823">
                <ele>46.761231</ele>
                <time>2012-01-29T04:15:17Z</time>
            </trkpt>
            <trkpt lon="99.723322" lat="12.925447">
                <ele>67.429688</ele>
                <time>2012-01-29T04:36:28Z</time>
            </trkpt>
            <trkpt lon="99.723685" lat="12.925309">
                <ele>65.507080</ele>
                <time>2012-01-29T04:36:46Z</time>
            </trkpt>
            <trkpt lon="99.724546" lat="12.925320">
                <ele>63.103638</ele>
                <time>2012-01-29T04:37:19Z</time>
            </trkpt>
            <trkpt lon="99.724782" lat="12.925289">
                <ele>61.661743</ele>
                <time>2012-01-29T04:37:30Z</time>
            </trkpt>
            <trkpt lon="99.727106" lat="12.925639">
                <ele>54.451782</ele>
                <time>2012-01-29T04:38:33Z</time>
            </trkpt>
            <trkpt lon="99.728177" lat="12.925576">
                <ele>53.009766</ele>
                <time>2012-01-29T04:39:01Z</time>
            </trkpt>
            <trkpt lon="99.729713" lat="12.925869">
                <ele>52.048584</ele>
                <time>2012-01-29T04:39:39Z</time>
            </trkpt>
            <trkpt lon="99.730708" lat="12.926101">
                <ele>45.799927</ele>
                <time>2012-01-29T04:40:11Z</time>
            </trkpt>
            <trkpt lon="99.730699" lat="12.925999">
                <ele>48.683960</ele>
                <time>2012-01-29T04:40:16Z</time>
            </trkpt>
            <trkpt lon="99.730257" lat="12.924759">
                <ele>53.490479</ele>
                <time>2012-01-29T04:40:56Z</time>
            </trkpt>
            <trkpt lon="99.730069" lat="12.924105">
                <ele>53.009766</ele>
                <time>2012-01-29T04:41:15Z</time>
            </trkpt>
            <trkpt lon="99.728935" lat="12.920934">
                <ele>61.181030</ele>
                <time>2012-01-29T04:42:38Z</time>
            </trkpt>
            <trkpt lon="99.729245" lat="12.920842">
                <ele>57.816528</ele>
                <time>2012-01-29T04:42:49Z</time>
            </trkpt>
            <trkpt lon="99.731891" lat="12.920619">
                <ele>53.009766</ele>
                <time>2012-01-29T04:43:55Z</time>
            </trkpt>
            <trkpt lon="99.732199" lat="12.921390">
                <ele>55.413086</ele>
                <time>2012-01-29T04:44:16Z</time>
            </trkpt>
            <trkpt lon="99.732719" lat="12.921920">
                <ele>54.932373</ele>
                <time>2012-01-29T04:44:44Z</time>
            </trkpt>
            <trkpt lon="99.733095" lat="12.922267">
                <ele>54.451782</ele>
                <time>2012-01-29T04:44:58Z</time>
            </trkpt>
            <trkpt lon="99.733856" lat="12.922693">
                <ele>53.490479</ele>
                <time>2012-01-29T04:45:18Z</time>
            </trkpt>
            <trkpt lon="99.734519" lat="12.922987">
                <ele>50.606567</ele>
                <time>2012-01-29T04:45:35Z</time>
            </trkpt>
            <trkpt lon="99.735020" lat="12.923378">
                <ele>50.125977</ele>
                <time>2012-01-29T04:45:51Z</time>
            </trkpt>
            <trkpt lon="99.735249" lat="12.923641">
                <ele>46.280640</ele>
                <time>2012-01-29T04:46:02Z</time>
            </trkpt>
            <trkpt lon="99.735707" lat="12.923761">
                <ele>43.396606</ele>
                <time>2012-01-29T04:46:22Z</time>
            </trkpt>
            <trkpt lon="99.735751" lat="12.924192">
                <ele>42.435425</ele>
                <time>2012-01-29T04:46:34Z</time>
            </trkpt>
            <trkpt lon="99.737268" lat="12.923542">
                <ele>40.032105</ele>
                <time>2012-01-29T04:47:12Z</time>
            </trkpt>
            <trkpt lon="99.738581" lat="12.923591">
                <ele>47.722534</ele>
                <time>2012-01-29T04:48:42Z</time>
            </trkpt>
            <trkpt lon="99.738655" lat="12.923603">
                <ele>47.722534</ele>
                <time>2012-01-29T04:48:55Z</time>
            </trkpt>
            <trkpt lon="99.738995" lat="12.923585">
                <ele>45.799927</ele>
                <time>2012-01-29T04:49:33Z</time>
            </trkpt>
            <trkpt lon="99.738911" lat="12.923028">
                <ele>46.761231</ele>
                <time>2012-01-29T04:49:56Z</time>
            </trkpt>
            <trkpt lon="99.738843" lat="12.921630">
                <ele>41.954712</ele>
                <time>2012-01-29T04:50:45Z</time>
            </trkpt>
            <trkpt lon="99.737279" lat="12.921577">
                <ele>42.916016</ele>
                <time>2012-01-29T04:51:30Z</time>
            </trkpt>
            <trkpt lon="99.737178" lat="12.921417">
                <ele>43.877319</ele>
                <time>2012-01-29T04:51:36Z</time>
            </trkpt>
            <trkpt lon="99.736775" lat="12.921516">
                <ele>42.435425</ele>
                <time>2012-01-29T04:51:49Z</time>
            </trkpt>
            <trkpt lon="99.735617" lat="12.920905">
                <ele>43.396606</ele>
                <time>2012-01-29T04:52:22Z</time>
            </trkpt>
            <trkpt lon="99.734194" lat="12.919860">
                <ele>45.799927</ele>
                <time>2012-01-29T04:53:16Z</time>
            </trkpt>
            <trkpt lon="99.734199" lat="12.919194">
                <ele>46.280640</ele>
                <time>2012-01-29T04:53:35Z</time>
            </trkpt>
            <trkpt lon="99.734076" lat="12.917820">
                <ele>45.799927</ele>
                <time>2012-01-29T04:54:10Z</time>
            </trkpt>
            <trkpt lon="99.732656" lat="12.917893">
                <ele>48.203369</ele>
                <time>2012-01-29T04:54:54Z</time>
            </trkpt>
            <trkpt lon="99.732441" lat="12.917811">
                <ele>49.164551</ele>
                <time>2012-01-29T04:55:02Z</time>
            </trkpt>
            <trkpt lon="99.732389" lat="12.917578">
                <ele>51.567871</ele>
                <time>2012-01-29T04:55:37Z</time>
            </trkpt>
            <trkpt lon="99.732344" lat="12.917221">
                <ele>52.048584</ele>
                <time>2012-01-29T04:56:10Z</time>
            </trkpt>
            <trkpt lon="99.732262" lat="12.916312">
                <ele>49.645264</ele>
                <time>2012-01-29T04:56:37Z</time>
            </trkpt>
            <trkpt lon="99.729180" lat="12.916661">
                <ele>54.451782</ele>
                <time>2012-01-29T04:58:08Z</time>
            </trkpt>
            <trkpt lon="99.729181" lat="12.916169">
                <ele>60.219727</ele>
                <time>2012-01-29T04:58:54Z</time>
            </trkpt>
            <trkpt lon="99.729178" lat="12.915561">
                <ele>58.297119</ele>
                <time>2012-01-29T04:59:32Z</time>
            </trkpt>
            <trkpt lon="99.728613" lat="12.915518">
                <ele>58.777710</ele>
                <time>2012-01-29T04:59:52Z</time>
            </trkpt>
            <trkpt lon="99.728527" lat="12.915287">
                <ele>58.777710</ele>
                <time>2012-01-29T05:00:00Z</time>
            </trkpt>
            <trkpt lon="99.728296" lat="12.915248">
                <ele>59.739136</ele>
                <time>2012-01-29T05:00:11Z</time>
            </trkpt>
            <trkpt lon="99.727964" lat="12.915250">
                <ele>60.219727</ele>
                <time>2012-01-29T05:00:23Z</time>
            </trkpt>
            <trkpt lon="99.727837" lat="12.915271">
                <ele>60.219727</ele>
                <time>2012-01-29T05:00:27Z</time>
            </trkpt>
            <trkpt lon="99.727844" lat="12.915818">
                <ele>60.219727</ele>
                <time>2012-01-29T05:00:42Z</time>
            </trkpt>
            <trkpt lon="99.727952" lat="12.916720">
                <ele>58.777710</ele>
                <time>2012-01-29T05:01:02Z</time>
            </trkpt>
            <trkpt lon="99.727644" lat="12.916892">
                <ele>58.777710</ele>
                <time>2012-01-29T05:01:13Z</time>
            </trkpt>
            <trkpt lon="99.727356" lat="12.916512">
                <ele>59.258423</ele>
                <time>2012-01-29T05:01:27Z</time>
            </trkpt>
            <trkpt lon="99.726974" lat="12.916232">
                <ele>61.181030</ele>
                <time>2012-01-29T05:01:42Z</time>
            </trkpt>
            <trkpt lon="99.725733" lat="12.915849">
                <ele>65.987671</ele>
                <time>2012-01-29T05:02:30Z</time>
            </trkpt>
            <trkpt lon="99.725446" lat="12.915656">
                <ele>65.507080</ele>
                <time>2012-01-29T05:02:41Z</time>
            </trkpt>
            <trkpt lon="99.724844" lat="12.914092">
                <ele>64.545654</ele>
                <time>2012-01-29T05:03:17Z</time>
            </trkpt>
            <trkpt lon="99.722388" lat="12.910080">
                <ele>63.103638</ele>
                <time>2012-01-29T05:04:49Z</time>
            </trkpt>
            <trkpt lon="99.722367" lat="12.910049">
                <ele>61.661743</ele>
                <time>2012-01-29T05:04:58Z</time>
            </trkpt>
            <trkpt lon="99.721903" lat="12.910152">
                <ele>61.661743</ele>
                <time>2012-01-29T05:05:21Z</time>
            </trkpt>
            <trkpt lon="99.719908" lat="12.909902">
                <ele>64.545654</ele>
                <time>2012-01-29T05:06:18Z</time>
            </trkpt>
            <trkpt lon="99.717200" lat="12.909509">
                <ele>60.700317</ele>
                <time>2012-01-29T05:07:11Z</time>
            </trkpt>
            <trkpt lon="99.716876" lat="12.909607">
                <ele>58.297119</ele>
                <time>2012-01-29T05:07:19Z</time>
            </trkpt>
            <trkpt lon="99.715815" lat="12.909299">
                <ele>59.739136</ele>
                <time>2012-01-29T05:07:49Z</time>
            </trkpt>
            <trkpt lon="99.715559" lat="12.909387">
                <ele>59.739136</ele>
                <time>2012-01-29T05:07:56Z</time>
            </trkpt>
            <trkpt lon="99.715215" lat="12.909854">
                <ele>59.739136</ele>
                <time>2012-01-29T05:08:09Z</time>
            </trkpt>
            <trkpt lon="99.714939" lat="12.909904">
                <ele>59.739136</ele>
                <time>2012-01-29T05:08:16Z</time>
            </trkpt>
            <trkpt lon="99.714703" lat="12.910161">
                <ele>59.739136</ele>
                <time>2012-01-29T05:08:24Z</time>
            </trkpt>
            <trkpt lon="99.714610" lat="12.910852">
                <ele>59.739136</ele>
                <time>2012-01-29T05:08:54Z</time>
            </trkpt>
            <trkpt lon="99.713733" lat="12.912273">
                <ele>64.065063</ele>
                <time>2012-01-29T05:09:45Z</time>
            </trkpt>
            <trkpt lon="99.711931" lat="12.915322">
                <ele>69.832886</ele>
                <time>2012-01-29T05:11:29Z</time>
            </trkpt>
            <trkpt lon="99.711590" lat="12.916044">
                <ele>70.794190</ele>
                <time>2012-01-29T05:11:52Z</time>
            </trkpt>
            <trkpt lon="99.711444" lat="12.915888">
                <ele>69.352295</ele>
                <time>2012-01-29T05:12:00Z</time>
            </trkpt>
            <trkpt lon="99.708942" lat="12.914921">
                <ele>67.429688</ele>
                <time>2012-01-29T05:13:06Z</time>
            </trkpt>
            <trkpt lon="99.707944" lat="12.914146">
                <ele>69.832886</ele>
                <time>2012-01-29T05:13:43Z</time>
            </trkpt>
            <trkpt lon="99.709455" lat="12.911633">
                <ele>63.103638</ele>
                <time>2012-01-29T05:14:44Z</time>
            </trkpt>
            <trkpt lon="99.709535" lat="12.911047">
                <ele>65.026367</ele>
                <time>2012-01-29T05:15:00Z</time>
            </trkpt>
            <trkpt lon="99.708234" lat="12.910454">
                <ele>65.987671</ele>
                <time>2012-01-29T05:15:38Z</time>
            </trkpt>
            <trkpt lon="99.707533" lat="12.909571">
                <ele>67.910278</ele>
                <time>2012-01-29T05:16:13Z</time>
            </trkpt>
            <trkpt lon="99.706159" lat="12.909172">
                <ele>69.352295</ele>
                <time>2012-01-29T05:17:25Z</time>
            </trkpt>
            <trkpt lon="99.703797" lat="12.908869">
                <ele>68.390869</ele>
                <time>2012-01-29T05:18:26Z</time>
            </trkpt>
            <trkpt lon="99.702969" lat="12.906778">
                <ele>74.639526</ele>
                <time>2012-01-29T05:19:44Z</time>
            </trkpt>
            <trkpt lon="99.702688" lat="12.906195">
                <ele>73.678223</ele>
                <time>2012-01-29T05:20:04Z</time>
            </trkpt>
            <trkpt lon="99.702536" lat="12.904641">
                <ele>78.004028</ele>
                <time>2012-01-29T05:20:47Z</time>
            </trkpt>
            <trkpt lon="99.702648" lat="12.902642">
                <ele>83.291382</ele>
                <time>2012-01-29T05:21:55Z</time>
            </trkpt>
            <trkpt lon="99.702734" lat="12.902205">
                <ele>84.252685</ele>
                <time>2012-01-29T05:22:10Z</time>
            </trkpt>
            <trkpt lon="99.703382" lat="12.898983">
                <ele>86.656006</ele>
                <time>2012-01-29T05:23:44Z</time>
            </trkpt>
            <trkpt lon="99.703158" lat="12.898874">
                <ele>87.617188</ele>
                <time>2012-01-29T05:23:54Z</time>
            </trkpt>
            <trkpt lon="99.700754" lat="12.898469">
                <ele>91.462524</ele>
                <time>2012-01-29T05:24:55Z</time>
            </trkpt>
            <trkpt lon="99.699525" lat="12.898268">
                <ele>90.020630</ele>
                <time>2012-01-29T05:25:16Z</time>
            </trkpt>
            <trkpt lon="99.698419" lat="12.898105">
                <ele>90.981934</ele>
                <time>2012-01-29T05:25:35Z</time>
            </trkpt>
            <trkpt lon="99.696003" lat="12.898366">
                <ele>93.385132</ele>
                <time>2012-01-29T05:26:20Z</time>
            </trkpt>
            <trkpt lon="99.692367" lat="12.899026">
                <ele>92.423950</ele>
                <time>2012-01-29T05:27:20Z</time>
            </trkpt>
            <trkpt lon="99.691778" lat="12.899494">
                <ele>90.981934</ele>
                <time>2012-01-29T05:27:36Z</time>
            </trkpt>
            <trkpt lon="99.691576" lat="12.899474">
                <ele>90.981934</ele>
                <time>2012-01-29T05:27:46Z</time>
            </trkpt>
            <trkpt lon="99.691363" lat="12.899590">
                <ele>89.539917</ele>
                <time>2012-01-29T05:27:55Z</time>
            </trkpt>
            <trkpt lon="99.690101" lat="12.900700">
                <ele>88.578735</ele>
                <time>2012-01-29T05:28:30Z</time>
            </trkpt>
            <trkpt lon="99.689606" lat="12.901009">
                <ele>89.059326</ele>
                <time>2012-01-29T05:28:42Z</time>
            </trkpt>
            <trkpt lon="99.689325" lat="12.900885">
                <ele>90.981934</ele>
                <time>2012-01-29T05:28:55Z</time>
            </trkpt>
            <trkpt lon="99.689233" lat="12.900497">
                <ele>92.904541</ele>
                <time>2012-01-29T05:29:13Z</time>
            </trkpt>
            <trkpt lon="99.689397" lat="12.900035">
                <ele>92.423950</ele>
                <time>2012-01-29T05:29:27Z</time>
            </trkpt>
            <trkpt lon="99.689183" lat="12.899163">
                <ele>92.423950</ele>
                <time>2012-01-29T05:29:47Z</time>
            </trkpt>
            <trkpt lon="99.688532" lat="12.898572">
                <ele>93.865845</ele>
                <time>2012-01-29T05:30:16Z</time>
            </trkpt>
            <trkpt lon="99.685704" lat="12.899556">
                <ele>102.517700</ele>
                <time>2012-01-29T05:31:32Z</time>
            </trkpt>
            <trkpt lon="99.685015" lat="12.899875">
                <ele>101.075684</ele>
                <time>2012-01-29T05:31:45Z</time>
            </trkpt>
            <trkpt lon="99.683560" lat="12.901084">
                <ele>99.633789</ele>
                <time>2012-01-29T05:32:17Z</time>
            </trkpt>
            <trkpt lon="99.683415" lat="12.901084">
                <ele>99.633789</ele>
                <time>2012-01-29T05:32:21Z</time>
            </trkpt>
            <trkpt lon="99.682610" lat="12.900764">
                <ele>99.633789</ele>
                <time>2012-01-29T05:32:42Z</time>
            </trkpt>
            <trkpt lon="99.681803" lat="12.900206">
                <ele>101.556397</ele>
                <time>2012-01-29T05:33:07Z</time>
            </trkpt>
            <trkpt lon="99.680857" lat="12.900163">
                <ele>103.479004</ele>
                <time>2012-01-29T05:33:37Z</time>
            </trkpt>
            <trkpt lon="99.679475" lat="12.899487">
                <ele>107.324341</ele>
                <time>2012-01-29T05:34:27Z</time>
            </trkpt>
            <trkpt lon="99.679478" lat="12.899482">
                <ele>107.324341</ele>
                <time>2012-01-29T05:34:45Z</time>
            </trkpt>
        </trkseg>
    </trk>
</gpx>